Sunday, February 17, 2019, 8:03 PM GMT
Back to Local

CWFQ, Frelighsburg

Location: , , Canada Lat: 45.05
Local Time: 8:03 PM GMT (20:03 GMT) Lon: -72.833
Time Zone: GMT Elev: 498 ft

Show me the last for .
Show Decoded

2019-02-17 19:00 METAR CWFQ 171900Z AUTO 34004KT M10/M18 RMK AO1 SOG 26 8020 SLP201 T10991182 =
2019-02-17 18:00 METAR CWFQ 171800Z AUTO 36007KT M10/M18 RMK AO1 SOG 26 8013 SLP213 T11041182 =
2019-02-17 17:00 METAR CWFQ 171700Z AUTO 29003KT M10/M19 RMK AO1 SOG 26 5004 SLP222 T11001190 =
2019-02-17 16:00 METAR CWFQ 171600Z AUTO 34002KT M11/M19 RMK AO1 SOG 26 8009 SLP221 T11141193 =
2019-02-17 15:00 METAR CWFQ 171500Z AUTO 34003KT M13/M20 RMK AO1 SOG 26 1009 SLP227 T11261195 =
2019-02-17 14:00 METAR CWFQ 171400Z AUTO 05006KT M14/M19 RMK AO1 SOG 26 0017 SLP226 T11351193 =
2019-02-17 13:00 METAR CWFQ 171300Z AUTO 36007KT M15/M19 RMK AO1 SOG 26 3023 SLP230 T11491192 =
2019-02-17 12:00 METAR CWFQ 171200Z AUTO 36001KT M16/M18 RMK AO1 SOG 27 3015 SLP218 T11581181 =
2019-02-17 11:00 METAR CWFQ 171100Z AUTO 30003KT M16/M18 RMK AO1 SOG 26 1016 SLP209 T11571179 =
2019-02-17 10:00 METAR CWFQ 171000Z AUTO 28004KT M14/M17 RMK AO1 SOG 26 3013 SLP206 T11441172 =
2019-02-17 09:00 METAR CWFQ 170900Z AUTO 29002KT M14/M17 RMK AO1 SOG 27 3015 SLP202 T11361168 =
2019-02-17 08:00 METAR CWFQ 170800Z AUTO 29003KT M13/M16 RMK AO1 SOG 27 1012 SLP192 T11311155 =
2019-02-17 07:00 METAR CWFQ 170700Z AUTO 25003KT M12/M16 RMK AO1 SOG 27 1020 SLP192 T11241158 =
2019-02-17 06:00 METAR CWFQ 170600Z AUTO 26002KT M12/M15 RMK AO1 2PAST HR SOG 27 3017 SLP185
                 P0001 T11201151 50002 =
2019-02-17 05:00 METAR CWFQ 170500Z AUTO 25002KT M12/M15 RMK AO1 SOG 26 3010 SLP179 T11231150 =
2019-02-17 04:00 METAR CWFQ 170400Z AUTO 33004KT M10/M15 RMK AO1 SOG 27 1011 SLP170 T11041148 =
2019-02-17 03:00 METAR CWFQ 170300Z AUTO 34005KT M09/M14 RMK AO1 SOG 27 3005 SLP167 T10941139 =
2019-02-17 02:00 METAR CWFQ 170200Z AUTO 31005KT M08/M13 RMK AO1 SOG 27 1015 SLP167 T10841129 =
2019-02-17 01:00 METAR CWFQ 170100Z AUTO 31004KT M07/M13 RMK AO1 SOG 27 0017 SLP159 T10741126 =
2019-02-17 00:00 METAR CWFQ 170000Z AUTO 31003KT M07/M12 RMK AO1 SOG 27 1029 SLP161 T10721115 =
2019-02-16 23:00 METAR CWFQ 162300Z AUTO 30004KT M07/M13 RMK AO1 SOG 27 1031 SLP151 T10711129 =
2019-02-16 22:00 METAR CWFQ 162200Z AUTO 30006KT M07/M13 RMK AO1 SOG 27 1032 SLP141 T10661128 =
2019-02-16 21:00 METAR CWFQ 162100Z AUTO 30005KT M06/M13 RMK AO1 SOG 27 3032 PK WND 31020/2002
                 SLP131 T10601131 =

Support USWX by starting your Amazon purchase here.